sensor_id;sensor_type;location;lat;lon;timestamp;pressure;altitude;pressure_sealevel;temperature;humidity
74895;BME280;63447;49.446;8.666;2022-12-07T00:01:05;100625.03;;;3.61;83.67
74895;BME280;63447;49.446;8.666;2022-12-07T00:03:31;100626.72;;;3.42;84.07
74895;BME280;63447;49.446;8.666;2022-12-07T00:05:58;100626.78;;;3.37;84.70
74895;BME280;63447;49.446;8.666;2022-12-07T00:08:23;100621.34;;;3.32;84.37
74895;BME280;63447;49.446;8.666;2022-12-07T00:10:49;100614.19;;;3.41;84.11
74895;BME280;63447;49.446;8.666;2022-12-07T00:13:14;100629.41;;;3.57;84.93
74895;BME280;63447;49.446;8.666;2022-12-07T00:15:39;100637.53;;;3.67;84.32
74895;BME280;63447;49.446;8.666;2022-12-07T00:18:04;100635.63;;;3.73;84.11
74895;BME280;63447;49.446;8.666;2022-12-07T00:20:32;100628.25;;;3.73;83.66
74895;BME280;63447;49.446;8.666;2022-12-07T00:22:58;100632.59;;;3.80;83.91
74895;BME280;63447;49.446;8.666;2022-12-07T00:25:24;100629.84;;;3.85;83.46
74895;BME280;63447;49.446;8.666;2022-12-07T00:27:52;100611.84;;;3.79;83.90
74895;BME280;63447;49.446;8.666;2022-12-07T00:30:17;100577.06;;;3.50;84.21
74895;BME280;63447;49.446;8.666;2022-12-07T00:32:42;100610.31;;;3.62;83.65
74895;BME280;63447;49.446;8.666;2022-12-07T00:35:10;100586.59;;;3.58;83.47
74895;BME280;63447;49.446;8.666;2022-12-07T00:37:35;100594.78;;;3.58;83.30
74895;BME280;63447;49.446;8.666;2022-12-07T00:40:00;100607.50;;;3.72;83.63
74895;BME280;63447;49.446;8.666;2022-12-07T00:42:28;100586.25;;;3.69;83.56
74895;BME280;63447;49.446;8.666;2022-12-07T00:44:56;100599.84;;;3.74;83.12
74895;BME280;63447;49.446;8.666;2022-12-07T00:47:21;100600.41;;;3.71;83.38
74895;BME280;63447;49.446;8.666;2022-12-07T00:49:46;100589.78;;;3.70;83.25
74895;BME280;63447;49.446;8.666;2022-12-07T00:52:14;100606.38;;;3.84;83.37
74895;BME280;63447;49.446;8.666;2022-12-07T00:54:39;100594.63;;;3.83;83.61
74895;BME280;63447;49.446;8.666;2022-12-07T00:57:05;100607.66;;;3.91;82.73
74895;BME280;63447;49.446;8.666;2022-12-07T00:59:32;100601.19;;;3.82;82.36
74895;BME280;63447;49.446;8.666;2022-12-07T01:02:00;100593.78;;;3.88;82.49
74895;BME280;63447;49.446;8.666;2022-12-07T01:04:28;100612.56;;;3.94;82.59
74895;BME280;63447;49.446;8.666;2022-12-07T01:06:55;100609.81;;;3.99;82.57
74895;BME280;63447;49.446;8.666;2022-12-07T01:09:23;100602.44;;;4.00;82.58
74895;BME280;63447;49.446;8.666;2022-12-07T01:11:50;100610.31;;;4.06;82.99
74895;BME280;63447;49.446;8.666;2022-12-07T01:14:18;100599.16;;;4.03;82.90
74895;BME280;63447;49.446;8.666;2022-12-07T01:16:46;100610.94;;;3.93;83.45
74895;BME280;63447;49.446;8.666;2022-12-07T01:19:13;100608.06;;;3.74;84.29
74895;BME280;63447;49.446;8.666;2022-12-07T01:21:39;100605.03;;;3.76;84.11
74895;BME280;63447;49.446;8.666;2022-12-07T01:24:07;100613.00;;;3.67;84.23
74895;BME280;63447;49.446;8.666;2022-12-07T01:26:32;100608.63;;;3.66;83.60
74895;BME280;63447;49.446;8.666;2022-12-07T01:28:58;100608.34;;;3.68;84.39
74895;BME280;63447;49.446;8.666;2022-12-07T01:31:29;100601.59;;;3.55;83.98
74895;BME280;63447;49.446;8.666;2022-12-07T01:33:57;100613.91;;;3.48;84.87
74895;BME280;63447;49.446;8.666;2022-12-07T01:36:26;100607.38;;;3.38;85.57
74895;BME280;63447;49.446;8.666;2022-12-07T01:38:55;100608.78;;;3.31;85.63
74895;BME280;63447;49.446;8.666;2022-12-07T01:41:25;100597.09;;;3.20;86.33
74895;BME280;63447;49.446;8.666;2022-12-07T01:44:20;100611.78;;;3.34;86.43
74895;BME280;63447;49.446;8.666;2022-12-07T01:46:53;100594.63;;;3.29;86.15
74895;BME280;63447;49.446;8.666;2022-12-07T01:49:46;100590.28;;;3.13;87.48
74895;BME280;63447;49.446;8.666;2022-12-07T01:52:16;100594.66;;;3.14;87.39
74895;BME280;63447;49.446;8.666;2022-12-07T01:54:47;100598.16;;;3.24;87.18
74895;BME280;63447;49.446;8.666;2022-12-07T01:57:15;100589.44;;;3.32;87.32
74895;BME280;63447;49.446;8.666;2022-12-07T01:59:42;100602.16;;;3.52;86.63
74895;BME280;63447;49.446;8.666;2022-12-07T02:02:13;100593.94;;;3.62;86.33
74895;BME280;63447;49.446;8.666;2022-12-07T02:04:45;100599.88;;;3.69;85.49
74895;BME280;63447;49.446;8.666;2022-12-07T02:07:11;100597.41;;;3.73;85.84
74895;BME280;63447;49.446;8.666;2022-12-07T02:09:37;100603.09;;;3.82;85.06
74895;BME280;63447;49.446;8.666;2022-12-07T02:12:02;100605.28;;;3.85;84.95
74895;BME280;63447;49.446;8.666;2022-12-07T02:14:28;100602.81;;;3.88;85.06
74895;BME280;63447;49.446;8.666;2022-12-07T02:17:03;100592.72;;;3.84;84.98
74895;BME280;63447;49.446;8.666;2022-12-07T02:19:58;100589.75;;;3.75;85.74
74895;BME280;63447;49.446;8.666;2022-12-07T02:28:27;100583.63;;;3.49;85.59
74895;BME280;63447;49.446;8.666;2022-12-07T02:30:57;100576.25;;;3.50;85.14
74895;BME280;63447;49.446;8.666;2022-12-07T02:33:42;100566.72;;;3.42;85.27
74895;BME280;63447;49.446;8.666;2022-12-07T02:36:17;100570.81;;;3.39;85.69
74895;BME280;63447;49.446;8.666;2022-12-07T02:38:50;100563.53;;;3.30;85.20
74895;BME280;63447;49.446;8.666;2022-12-07T02:43:57;100566.00;;;3.26;85.97
74895;BME280;63447;49.446;8.666;2022-12-07T02:46:33;100577.38;;;3.38;85.74
74895;BME280;63447;49.446;8.666;2022-12-07T02:49:01;100580.06;;;3.49;84.82
74895;BME280;63447;49.446;8.666;2022-12-07T02:51:30;100586.88;;;3.56;85.14
74895;BME280;63447;49.446;8.666;2022-12-07T02:54:00;100577.56;;;3.62;84.63
74895;BME280;63447;49.446;8.666;2022-12-07T02:59:38;100585.13;;;3.70;84.68
74895;BME280;63447;49.446;8.666;2022-12-07T03:08:37;100588.91;;;3.85;83.74
74895;BME280;63447;49.446;8.666;2022-12-07T03:11:09;100575.81;;;3.82;83.26
74895;BME280;63447;49.446;8.666;2022-12-07T03:16:21;100572.56;;;3.74;83.06
74895;BME280;63447;49.446;8.666;2022-12-07T03:19:17;100578.59;;;3.71;83.37
74895;BME280;63447;49.446;8.666;2022-12-07T03:21:54;100575.13;;;3.61;83.53
74895;BME280;63447;49.446;8.666;2022-12-07T03:24:26;100558.78;;;3.51;83.58
74895;BME280;63447;49.446;8.666;2022-12-07T03:26:56;100558.50;;;3.57;83.29
74895;BME280;63447;49.446;8.666;2022-12-07T03:29:31;100557.19;;;3.39;84.17
74895;BME280;63447;49.446;8.666;2022-12-07T03:32:48;100555.25;;;3.45;84.12
74895;BME280;63447;49.446;8.666;2022-12-07T03:34:57;100546.53;;;3.43;83.72
74895;BME280;63447;49.446;8.666;2022-12-07T03:40:15;100553.69;;;3.34;84.34
74895;BME280;63447;49.446;8.666;2022-12-07T03:42:43;100537.28;;;3.39;83.56
74895;BME280;63447;49.446;8.666;2022-12-07T03:45:11;100536.00;;;3.26;83.57
74895;BME280;63447;49.446;8.666;2022-12-07T03:48:14;100549.28;;;3.43;84.00
74895;BME280;63447;49.446;8.666;2022-12-07T03:53:09;100542.25;;;3.27;84.37
74895;BME280;63447;49.446;8.666;2022-12-07T03:55:42;100547.47;;;3.23;84.61
74895;BME280;63447;49.446;8.666;2022-12-07T03:58:16;100549.34;;;3.28;84.75
74895;BME280;63447;49.446;8.666;2022-12-07T04:00:43;100540.38;;;3.22;84.58
74895;BME280;63447;49.446;8.666;2022-12-07T04:03:10;100542.81;;;3.24;84.67
74895;BME280;63447;49.446;8.666;2022-12-07T04:05:36;100544.16;;;3.31;84.19
74895;BME280;63447;49.446;8.666;2022-12-07T04:08:01;100544.69;;;3.33;84.11
74895;BME280;63447;49.446;8.666;2022-12-07T04:10:27;100530.56;;;3.21;84.43
74895;BME280;63447;49.446;8.666;2022-12-07T04:13:02;100542.56;;;3.20;84.86
74895;BME280;63447;49.446;8.666;2022-12-07T04:15:28;100546.38;;;3.19;85.08
74895;BME280;63447;49.446;8.666;2022-12-07T04:17:55;100548.81;;;3.21;84.62
74895;BME280;63447;49.446;8.666;2022-12-07T04:20:23;100539.28;;;3.18;85.33
74895;BME280;63447;49.446;8.666;2022-12-07T04:22:49;100540.91;;;3.24;85.03
74895;BME280;63447;49.446;8.666;2022-12-07T04:25:14;100528.34;;;3.28;84.40
74895;BME280;63447;49.446;8.666;2022-12-07T04:27:39;100516.66;;;3.18;84.81
74895;BME280;63447;49.446;8.666;2022-12-07T04:30:05;100531.38;;;3.22;84.39
74895;BME280;63447;49.446;8.666;2022-12-07T04:32:31;100531.63;;;3.30;84.99
74895;BME280;63447;49.446;8.666;2022-12-07T04:34:56;100531.63;;;3.25;84.42
74895;BME280;63447;49.446;8.666;2022-12-07T04:37:22;100528.06;;;3.30;84.64
74895;BME280;63447;49.446;8.666;2022-12-07T04:39:50;100529.72;;;3.31;84.58
74895;BME280;63447;49.446;8.666;2022-12-07T04:42:15;100529.72;;;3.31;84.82
74895;BME280;63447;49.446;8.666;2022-12-07T04:44:43;100519.13;;;3.19;85.13
74895;BME280;63447;49.446;8.666;2022-12-07T04:47:09;100538.09;;;3.45;84.49
74895;BME280;63447;49.446;8.666;2022-12-07T04:49:37;100540.00;;;3.44;85.27
74895;BME280;63447;49.446;8.666;2022-12-07T04:52:02;100538.84;;;3.55;84.00
74895;BME280;63447;49.446;8.666;2022-12-07T04:54:28;100552.47;;;3.60;83.99
74895;BME280;63447;49.446;8.666;2022-12-07T04:56:53;100530.13;;;3.53;84.00
74895;BME280;63447;49.446;8.666;2022-12-07T04:59:19;100545.38;;;3.59;83.60
74895;BME280;63447;49.446;8.666;2022-12-07T05:01:44;100554.91;;;3.62;83.53
74895;BME280;63447;49.446;8.666;2022-12-07T05:04:12;100530.50;;;3.36;82.68
74895;BME280;63447;49.446;8.666;2022-12-07T05:06:38;100553.34;;;3.51;83.10
74895;BME280;63447;49.446;8.666;2022-12-07T05:09:04;100544.88;;;3.52;83.29
74895;BME280;63447;49.446;8.666;2022-12-07T05:11:29;100531.50;;;3.51;84.28
74895;BME280;63447;49.446;8.666;2022-12-07T05:14:13;100524.00;;;3.27;84.52
74895;BME280;63447;49.446;8.666;2022-12-07T05:16:42;100541.91;;;3.44;84.84
74895;BME280;63447;49.446;8.666;2022-12-07T05:19:09;100537.59;;;3.37;84.29
74895;BME280;63447;49.446;8.666;2022-12-07T05:21:35;100507.47;;;3.03;84.23
74895;BME280;63447;49.446;8.666;2022-12-07T05:24:00;100536.03;;;3.16;85.63
74895;BME280;63447;49.446;8.666;2022-12-07T05:26:26;100537.13;;;3.15;86.34
74895;BME280;63447;49.446;8.666;2022-12-07T05:28:52;100536.28;;;3.25;85.96
74895;BME280;63447;49.446;8.666;2022-12-07T05:31:18;100515.28;;;3.25;85.75
74895;BME280;63447;49.446;8.666;2022-12-07T05:33:44;100535.88;;;3.47;85.86
74895;BME280;63447;49.446;8.666;2022-12-07T05:36:09;100523.59;;;3.49;85.05
74895;BME280;63447;49.446;8.666;2022-12-07T05:38:34;100507.34;;;3.34;86.04
74895;BME280;63447;49.446;8.666;2022-12-07T05:41:01;100538.63;;;3.41;85.02
74895;BME280;63447;49.446;8.666;2022-12-07T05:43:28;100530.81;;;3.30;84.66
74895;BME280;63447;49.446;8.666;2022-12-07T05:45:55;100532.19;;;3.27;85.08
74895;BME280;63447;49.446;8.666;2022-12-07T05:48:23;100531.88;;;3.34;85.24
74895;BME280;63447;49.446;8.666;2022-12-07T05:50:51;100538.47;;;3.23;85.16
74895;BME280;63447;49.446;8.666;2022-12-07T05:53:17;100526.53;;;3.09;85.58
74895;BME280;63447;49.446;8.666;2022-12-07T05:55:43;100541.75;;;3.20;84.93
74895;BME280;63447;49.446;8.666;2022-12-07T05:58:11;100520.75;;;3.15;85.10
74895;BME280;63447;49.446;8.666;2022-12-07T06:00:56;100516.94;;;3.16;86.28
74895;BME280;63447;49.446;8.666;2022-12-07T06:03:26;100534.06;;;3.32;85.59
74895;BME280;63447;49.446;8.666;2022-12-07T06:05:52;100539.19;;;3.44;85.45
74895;BME280;63447;49.446;8.666;2022-12-07T06:08:17;100546.25;;;3.50;85.43
74895;BME280;63447;49.446;8.666;2022-12-07T06:10:46;100551.41;;;3.51;86.02
74895;BME280;63447;49.446;8.666;2022-12-07T06:13:32;100538.59;;;3.52;86.04
74895;BME280;63447;49.446;8.666;2022-12-07T06:15:57;100545.38;;;3.59;85.45
74895;BME280;63447;49.446;8.666;2022-12-07T06:18:22;100538.28;;;3.63;85.31
74895;BME280;63447;49.446;8.666;2022-12-07T06:20:47;100547.03;;;3.60;84.51
74895;BME280;63447;49.446;8.666;2022-12-07T06:23:13;100516.25;;;3.50;85.22
74895;BME280;63447;49.446;8.666;2022-12-07T06:25:38;100533.13;;;3.57;85.39
74895;BME280;63447;49.446;8.666;2022-12-07T06:28:03;100544.97;;;3.32;85.78
74895;BME280;63447;49.446;8.666;2022-12-07T06:30:29;100520.00;;;3.04;85.85
74895;BME280;63447;49.446;8.666;2022-12-07T06:32:54;100542.81;;;3.29;86.14
74895;BME280;63447;49.446;8.666;2022-12-07T06:35:20;100541.44;;;3.31;86.43
74895;BME280;63447;49.446;8.666;2022-12-07T06:37:47;100546.06;;;3.31;85.76
74895;BME280;63447;49.446;8.666;2022-12-07T06:40:15;100504.69;;;3.14;86.17
74895;BME280;63447;49.446;8.666;2022-12-07T06:42:40;100542.16;;;3.47;85.28
74895;BME280;63447;49.446;8.666;2022-12-07T06:45:05;100542.19;;;3.42;85.88
74895;BME280;63447;49.446;8.666;2022-12-07T06:47:31;100510.09;;;3.24;86.05
74895;BME280;63447;49.446;8.666;2022-12-07T06:49:56;100543.00;;;3.42;85.35
74895;BME280;63447;49.446;8.666;2022-12-07T06:52:21;100542.78;;;3.34;84.58
74895;BME280;63447;49.446;8.666;2022-12-07T06:54:47;100533.28;;;3.21;85.34
74895;BME280;63447;49.446;8.666;2022-12-07T06:57:12;100530.84;;;3.20;84.47
74895;BME280;63447;49.446;8.666;2022-12-07T06:59:39;100544.00;;;3.02;85.86
74895;BME280;63447;49.446;8.666;2022-12-07T07:02:08;100543.75;;;2.94;85.72
74895;BME280;63447;49.446;8.666;2022-12-07T07:04:34;100553.56;;;2.90;86.96
74895;BME280;63447;49.446;8.666;2022-12-07T07:06:59;100539.09;;;2.99;86.99
74895;BME280;63447;49.446;8.666;2022-12-07T07:09:24;100504.28;;;2.81;86.56
74895;BME280;63447;49.446;8.666;2022-12-07T07:11:52;100554.56;;;3.14;86.02
74895;BME280;63447;49.446;8.666;2022-12-07T07:14:25;100554.56;;;3.19;85.66
74895;BME280;63447;49.446;8.666;2022-12-07T07:16:50;100558.06;;;3.30;85.55
74895;BME280;63447;49.446;8.666;2022-12-07T07:19:15;100560.72;;;3.40;86.25
74895;BME280;63447;49.446;8.666;2022-12-07T07:21:41;100532.97;;;3.33;85.69
74895;BME280;63447;49.446;8.666;2022-12-07T07:24:07;100558.50;;;3.52;85.11
74895;BME280;63447;49.446;8.666;2022-12-07T07:26:34;100546.25;;;3.50;85.55
74895;BME280;63447;49.446;8.666;2022-12-07T07:28:59;100537.22;;;3.54;84.42
74895;BME280;63447;49.446;8.666;2022-12-07T07:31:27;100566.13;;;3.60;84.00
74895;BME280;63447;49.446;8.666;2022-12-07T07:33:52;100552.25;;;3.47;84.13
74895;BME280;63447;49.446;8.666;2022-12-07T07:36:20;100549.53;;;3.47;84.17
74895;BME280;63447;49.446;8.666;2022-12-07T07:38:45;100563.38;;;3.60;84.28
74895;BME280;63447;49.446;8.666;2022-12-07T07:41:10;100569.31;;;3.67;84.45
74895;BME280;63447;49.446;8.666;2022-12-07T07:43:36;100565.84;;;3.57;83.81
74895;BME280;63447;49.446;8.666;2022-12-07T07:46:01;100566.19;;;3.40;83.81
74895;BME280;63447;49.446;8.666;2022-12-07T07:48:26;100565.63;;;3.48;84.90
74895;BME280;63447;49.446;8.666;2022-12-07T07:50:52;100554.44;;;3.50;83.84
74895;BME280;63447;49.446;8.666;2022-12-07T07:53:17;100575.69;;;3.53;83.96
74895;BME280;63447;49.446;8.666;2022-12-07T07:55:52;100574.91;;;3.47;84.74
74895;BME280;63447;49.446;8.666;2022-12-07T07:58:18;100579.78;;;3.50;84.67
74895;BME280;63447;49.446;8.666;2022-12-07T08:00:46;100579.53;;;3.52;84.81
74895;BME280;63447;49.446;8.666;2022-12-07T08:03:14;100580.31;;;3.57;84.34
74895;BME280;63447;49.446;8.666;2022-12-07T08:05:39;100579.25;;;3.53;84.74
74895;BME280;63447;49.446;8.666;2022-12-07T08:08:04;100583.63;;;3.44;85.21
74895;BME280;63447;49.446;8.666;2022-12-07T08:10:33;100568.38;;;3.38;85.12
74895;BME280;63447;49.446;8.666;2022-12-07T08:13:00;100578.94;;;3.60;84.35
74895;BME280;63447;49.446;8.666;2022-12-07T08:15:45;100579.94;;;3.74;83.43
74895;BME280;63447;49.446;8.666;2022-12-07T08:18:11;100594.69;;;3.68;83.56
74895;BME280;63447;49.446;8.666;2022-12-07T08:20:40;100576.50;;;3.58;82.86
74895;BME280;63447;49.446;8.666;2022-12-07T08:23:06;100586.31;;;3.59;83.79
74895;BME280;63447;49.446;8.666;2022-12-07T08:25:35;100591.53;;;3.46;85.34
74895;BME280;63447;49.446;8.666;2022-12-07T08:28:03;100567.88;;;3.31;84.40
74895;BME280;63447;49.446;8.666;2022-12-07T08:30:31;100591.81;;;3.44;85.41
74895;BME280;63447;49.446;8.666;2022-12-07T08:32:57;100596.19;;;3.40;84.62
74895;BME280;63447;49.446;8.666;2022-12-07T08:35:22;100589.91;;;3.45;84.86
74895;BME280;63447;49.446;8.666;2022-12-07T08:37:48;100570.88;;;3.34;84.39
74895;BME280;63447;49.446;8.666;2022-12-07T08:40:14;100577.31;;;3.59;84.16
74895;BME280;63447;49.446;8.666;2022-12-07T08:42:47;100562.88;;;3.53;84.32
74895;BME280;63447;49.446;8.666;2022-12-07T08:45:16;100590.59;;;3.70;84.53
74895;BME280;63447;49.446;8.666;2022-12-07T08:50:15;100591.22;;;3.57;84.01
74895;BME280;63447;49.446;8.666;2022-12-07T08:52:41;100574.31;;;3.55;84.88
74895;BME280;63447;49.446;8.666;2022-12-07T08:55:11;100590.59;;;3.70;83.73
74895;BME280;63447;49.446;8.666;2022-12-07T08:57:37;100593.59;;;3.69;84.08
74895;BME280;63447;49.446;8.666;2022-12-07T09:00:06;100593.34;;;3.65;83.24
74895;BME280;63447;49.446;8.666;2022-12-07T09:02:32;100528.94;;;3.20;84.51
74895;BME280;63447;49.446;8.666;2022-12-07T09:04:57;100593.13;;;3.57;85.36
74895;BME280;63447;49.446;8.666;2022-12-07T09:07:27;100578.38;;;3.63;84.84
74895;BME280;63447;49.446;8.666;2022-12-07T09:09:52;100586.78;;;3.66;84.38
74895;BME280;63447;49.446;8.666;2022-12-07T09:12:17;100590.81;;;3.84;83.64
74895;BME280;63447;49.446;8.666;2022-12-07T09:14:43;100535.06;;;3.46;82.44
74895;BME280;63447;49.446;8.666;2022-12-07T09:17:09;100593.03;;;3.72;82.38
74895;BME280;63447;49.446;8.666;2022-12-07T09:19:34;100580.28;;;3.62;83.03
74895;BME280;63447;49.446;8.666;2022-12-07T09:22:03;100595.78;;;3.67;83.38
74895;BME280;63447;49.446;8.666;2022-12-07T09:24:30;100588.47;;;3.62;83.56
74895;BME280;63447;49.446;8.666;2022-12-07T09:26:55;100592.31;;;3.56;83.71
74895;BME280;63447;49.446;8.666;2022-12-07T09:29:21;100596.34;;;3.64;84.08
74895;BME280;63447;49.446;8.666;2022-12-07T09:31:49;100591.72;;;3.64;84.40
74895;BME280;63447;49.446;8.666;2022-12-07T09:34:16;100602.59;;;3.74;83.53
74895;BME280;63447;49.446;8.666;2022-12-07T09:36:42;100608.06;;;3.74;83.53
74895;BME280;63447;49.446;8.666;2022-12-07T09:39:08;100597.84;;;3.90;82.79
74895;BME280;63447;49.446;8.666;2022-12-07T09:41:39;100601.47;;;3.81;83.73
74895;BME280;63447;49.446;8.666;2022-12-07T09:44:11;100571.59;;;3.55;84.20
74895;BME280;63447;49.446;8.666;2022-12-07T09:46:40;100596.56;;;3.78;83.84
74895;BME280;63447;49.446;8.666;2022-12-07T09:49:14;100595.50;;;3.73;84.24
74895;BME280;63447;49.446;8.666;2022-12-07T09:51:44;100579.97;;;3.64;84.26
74895;BME280;63447;49.446;8.666;2022-12-07T09:54:13;100585.13;;;3.70;84.11
74895;BME280;63447;49.446;8.666;2022-12-07T09:56:39;100585.66;;;3.78;83.42
74895;BME280;63447;49.446;8.666;2022-12-07T09:59:04;100588.38;;;3.78;84.47
74895;BME280;63447;49.446;8.666;2022-12-07T10:01:31;100589.66;;;3.90;84.26
74895;BME280;63447;49.446;8.666;2022-12-07T10:04:10;100581.03;;;3.73;83.56
74895;BME280;63447;49.446;8.666;2022-12-07T10:06:40;100580.47;;;3.81;84.51
74895;BME280;63447;49.446;8.666;2022-12-07T10:09:16;100554.28;;;3.75;84.70
74895;BME280;63447;49.446;8.666;2022-12-07T10:12:05;100571.72;;;3.84;83.58
74895;BME280;63447;49.446;8.666;2022-12-07T10:14:35;100575.69;;;3.97;84.18
74895;BME280;63447;49.446;8.666;2022-12-07T10:17:01;100571.44;;;3.86;84.62
74895;BME280;63447;49.446;8.666;2022-12-07T10:19:31;100565.41;;;3.89;83.87
74895;BME280;63447;49.446;8.666;2022-12-07T10:22:12;100563.19;;;3.91;83.23
74895;BME280;63447;49.446;8.666;2022-12-07T10:24:47;100573.78;;;3.97;82.69
74895;BME280;63447;49.446;8.666;2022-12-07T10:27:26;100567.72;;;4.11;83.76
74895;BME280;63447;49.446;8.666;2022-12-07T10:29:54;100565.31;;;3.99;82.46
74895;BME280;63447;49.446;8.666;2022-12-07T10:34:45;100561.72;;;4.08;84.39
74895;BME280;63447;49.446;8.666;2022-12-07T10:42:18;100552.38;;;4.15;83.08
74895;BME280;63447;49.446;8.666;2022-12-07T10:44:48;100541.16;;;4.16;83.45
74895;BME280;63447;49.446;8.666;2022-12-07T11:00:25;100533.63;;;4.03;83.40
74895;BME280;63447;49.446;8.666;2022-12-07T11:11:23;100520.50;;;4.05;82.85
74895;BME280;63447;49.446;8.666;2022-12-07T11:16:58;100522.34;;;4.15;82.97
74895;BME280;63447;49.446;8.666;2022-12-07T11:22:21;100522.47;;;4.33;82.47
74895;BME280;63447;49.446;8.666;2022-12-07T11:30:24;100514.78;;;4.35;84.46
74895;BME280;63447;49.446;8.666;2022-12-07T11:36:01;100501.66;;;4.37;83.88
74895;BME280;63447;49.446;8.666;2022-12-07T11:38:50;100460.22;;;4.30;83.23
74895;BME280;63447;49.446;8.666;2022-12-07T11:41:22;100496.47;;;4.65;82.80
74895;BME280;63447;49.446;8.666;2022-12-07T11:46:27;100480.38;;;4.63;82.74
74895;BME280;63447;49.446;8.666;2022-12-07T11:51:23;100473.66;;;4.74;82.29
74895;BME280;63447;49.446;8.666;2022-12-07T11:56:16;100484.19;;;4.86;82.03
74895;BME280;63447;49.446;8.666;2022-12-07T11:58:55;100476.59;;;4.83;81.37
74895;BME280;63447;49.446;8.666;2022-12-07T12:06:37;100466.16;;;4.37;82.38
74895;BME280;63447;49.446;8.666;2022-12-07T12:09:12;100470.41;;;4.49;82.70
74895;BME280;63447;49.446;8.666;2022-12-07T12:12:17;100474.00;;;4.44;82.87
74895;BME280;63447;49.446;8.666;2022-12-07T12:14:59;100463.34;;;4.42;82.86
74895;BME280;63447;49.446;8.666;2022-12-07T12:17:52;100461.66;;;4.47;82.80
74895;BME280;63447;49.446;8.666;2022-12-07T12:23:47;100457.31;;;4.69;82.91
74895;BME280;63447;49.446;8.666;2022-12-07T12:26:18;100449.38;;;5.16;81.21
74895;BME280;63447;49.446;8.666;2022-12-07T12:31:36;100448.56;;;5.34;79.52
74895;BME280;63447;49.446;8.666;2022-12-07T12:36:55;100443.84;;;5.39;79.44
74895;BME280;63447;49.446;8.666;2022-12-07T12:39:20;100438.00;;;5.46;80.58
74895;BME280;63447;49.446;8.666;2022-12-07T12:47:02;100436.00;;;5.33;80.52
74895;BME280;63447;49.446;8.666;2022-12-07T12:52:01;100426.75;;;5.10;81.08
74895;BME280;63447;49.446;8.666;2022-12-07T12:55:22;100432.50;;;5.08;80.13
74895;BME280;63447;49.446;8.666;2022-12-07T13:00:47;100422.91;;;5.11;81.18
74895;BME280;63447;49.446;8.666;2022-12-07T13:03:32;100417.28;;;5.02;81.19
74895;BME280;63447;49.446;8.666;2022-12-07T13:06:19;100419.59;;;5.14;81.05
74895;BME280;63447;49.446;8.666;2022-12-07T13:08:47;100420.41;;;5.15;79.92
74895;BME280;63447;49.446;8.666;2022-12-07T13:11:20;100418.25;;;5.11;80.71
74895;BME280;63447;49.446;8.666;2022-12-07T13:13:52;100422.03;;;5.16;80.32
74895;BME280;63447;49.446;8.666;2022-12-07T13:16:37;100418.09;;;5.22;79.53
74895;BME280;63447;49.446;8.666;2022-12-07T13:25:05;100404.22;;;5.37;80.98
74895;BME280;63447;49.446;8.666;2022-12-07T13:27:35;100394.31;;;5.41;80.55
74895;BME280;63447;49.446;8.666;2022-12-07T13:30:22;100397.16;;;5.50;81.29
74895;BME280;63447;49.446;8.666;2022-12-07T13:32:53;100402.56;;;5.55;81.34
74895;BME280;63447;49.446;8.666;2022-12-07T13:35:38;100392.50;;;5.50;78.46
74895;BME280;63447;49.446;8.666;2022-12-07T13:38:13;100400.00;;;5.44;76.85
74895;BME280;63447;49.446;8.666;2022-12-07T13:40:40;100396.16;;;5.45;76.07
74895;BME280;63447;49.446;8.666;2022-12-07T13:43:11;100390.47;;;5.42;76.18
74895;BME280;63447;49.446;8.666;2022-12-07T13:45:46;100392.38;;;5.41;75.85
74895;BME280;63447;49.446;8.666;2022-12-07T13:48:46;100387.78;;;5.37;75.06
74895;BME280;63447;49.446;8.666;2022-12-07T13:53:51;100390.97;;;5.44;75.21
74895;BME280;63447;49.446;8.666;2022-12-07T13:56:17;100386.97;;;5.36;73.92
74895;BME280;63447;49.446;8.666;2022-12-07T13:58:42;100386.63;;;5.43;73.88
74895;BME280;63447;49.446;8.666;2022-12-07T14:01:08;100385.41;;;5.49;73.11
74895;BME280;63447;49.446;8.666;2022-12-07T14:03:34;100383.06;;;5.42;75.29
74895;BME280;63447;49.446;8.666;2022-12-07T14:08:36;100367.53;;;5.38;73.52
74895;BME280;63447;49.446;8.666;2022-12-07T14:11:02;100378.31;;;5.48;73.51
74895;BME280;63447;49.446;8.666;2022-12-07T14:13:34;100378.13;;;5.44;74.67
74895;BME280;63447;49.446;8.666;2022-12-07T14:16:02;100358.81;;;5.36;74.23
74895;BME280;63447;49.446;8.666;2022-12-07T14:18:41;100390.50;;;5.56;74.54
74895;BME280;63447;49.446;8.666;2022-12-07T14:21:17;100385.00;;;5.42;74.71
74895;BME280;63447;49.446;8.666;2022-12-07T14:23:44;100375.44;;;5.39;73.38
74895;BME280;63447;49.446;8.666;2022-12-07T14:26:20;100361.69;;;5.26;72.88
74895;BME280;63447;49.446;8.666;2022-12-07T14:28:46;100376.63;;;5.33;73.67
74895;BME280;63447;49.446;8.666;2022-12-07T14:31:17;100386.91;;;5.41;74.99
74895;BME280;63447;49.446;8.666;2022-12-07T14:33:43;100388.31;;;5.39;75.06
74895;BME280;63447;49.446;8.666;2022-12-07T14:36:13;100385.59;;;5.39;74.98
74895;BME280;63447;49.446;8.666;2022-12-07T14:38:41;100391.78;;;5.44;74.93
74895;BME280;63447;49.446;8.666;2022-12-07T14:41:15;100389.34;;;5.43;74.74
74895;BME280;63447;49.446;8.666;2022-12-07T14:44:02;100391.66;;;5.36;74.74
74895;BME280;63447;49.446;8.666;2022-12-07T14:46:29;100384.03;;;5.33;75.38
74895;BME280;63447;49.446;8.666;2022-12-07T14:48:54;100375.81;;;5.33;74.58
74895;BME280;63447;49.446;8.666;2022-12-07T14:51:20;100382.69;;;5.30;74.71
74895;BME280;63447;49.446;8.666;2022-12-07T14:53:50;100383.44;;;5.36;75.29
74895;BME280;63447;49.446;8.666;2022-12-07T14:56:19;100378.25;;;5.34;76.17
74895;BME280;63447;49.446;8.666;2022-12-07T14:58:44;100376.47;;;5.25;76.43
74895;BME280;63447;49.446;8.666;2022-12-07T15:01:09;100371.75;;;5.11;75.70
74895;BME280;63447;49.446;8.666;2022-12-07T15:03:37;100378.88;;;5.13;76.04
74895;BME280;63447;49.446;8.666;2022-12-07T15:06:07;100376.88;;;5.18;76.31
74895;BME280;63447;49.446;8.666;2022-12-07T15:08:35;100377.53;;;5.10;76.81